createdAt,value
2022-12-17T12:37:24.789Z,97846.59
2022-12-17T12:40:04.940Z,97848.22
2022-12-17T12:42:39.068Z,97842.13
2022-12-17T12:45:31.525Z,97838.78
2022-12-17T12:48:10.227Z,97838.97
2022-12-17T12:51:03.628Z,97839.72
2022-12-17T12:53:44.350Z,97835.56
2022-12-17T12:56:33.413Z,97827.22
2022-12-17T12:59:12.228Z,97830.63
2022-12-17T13:01:41.026Z,97826.63
2022-12-17T13:04:27.179Z,97829.25
2022-12-17T13:06:56.614Z,97833.34
2022-12-17T13:09:42.585Z,97832.75
2022-12-17T13:12:30.709Z,97835.38
2022-12-17T13:15:32.875Z,97825.59
2022-12-17T13:18:20.735Z,97819.47
2022-12-17T13:21:00.427Z,97811.50
2022-12-17T13:23:33.878Z,97816.63
2022-12-17T13:26:25.505Z,97808.53
2022-12-17T13:29:13.332Z,97822.16
2022-12-17T13:31:53.836Z,97812.16
2022-12-17T13:34:35.209Z,97823.69
2022-12-17T13:37:12.279Z,97817.03
2022-12-17T13:40:00.233Z,97814.06
2022-12-17T13:42:34.777Z,97828.06
2022-12-17T13:45:03.616Z,97833.66
2022-12-17T13:47:34.661Z,97829.78
2022-12-17T13:50:35.475Z,97836.41
2022-12-17T13:53:14.544Z,97840.34
2022-12-17T13:55:52.451Z,97844.19
2022-12-17T13:58:27.875Z,97835.69
2022-12-17T14:01:06.774Z,97843.91
2022-12-17T14:04:04.476Z,97848.22
2022-12-17T14:06:34.571Z,97851.84
2022-12-17T14:09:03.808Z,97843.22
2022-12-17T14:11:33.853Z,97846.31
2022-12-17T14:14:03.932Z,97844.94
2022-12-17T14:16:34.707Z,97853.34
2022-12-17T14:19:03.379Z,97858.19
2022-12-17T14:21:31.651Z,97860.66
2022-12-17T14:24:00.968Z,97864.19
2022-12-17T14:26:32.215Z,97867.56
2022-12-17T14:29:03.008Z,97870.13
2022-12-17T14:31:33.112Z,97871.91
2022-12-17T14:34:04.962Z,97869.44
2022-12-17T14:36:35.847Z,97872.47
2022-12-17T14:39:16.065Z,97877.97
2022-12-17T14:41:45.518Z,97868.59
2022-12-17T14:44:21.648Z,97873.25
2022-12-17T14:47:11.722Z,97873.22
2022-12-17T14:52:42.750Z,97885.72
2022-12-17T14:55:39.158Z,97890.91
2022-12-17T14:58:23.032Z,97876.69
2022-12-17T15:00:58.304Z,97878.63
2022-12-17T15:03:32.219Z,97881.03
2022-12-17T15:06:14.749Z,97890.72
2022-12-17T15:08:47.710Z,97890.22
2022-12-17T15:11:19.150Z,97895.34
2022-12-17T15:13:52.971Z,97886.41
2022-12-17T15:16:24.192Z,97881.19
2022-12-17T15:18:55.284Z,97883.66
2022-12-17T15:21:26.995Z,97889.03
2022-12-17T15:23:55.327Z,97883.72
2022-12-17T15:26:23.500Z,97891.09
2022-12-17T15:28:51.635Z,97897.09
2022-12-17T15:31:24.478Z,97895.16
2022-12-17T15:33:54.838Z,97889.94
2022-12-17T15:36:22.762Z,97895.19
2022-12-17T15:38:50.737Z,97906.72
2022-12-17T15:41:18.683Z,97904.47
2022-12-17T15:43:46.737Z,97900.63
2022-12-17T15:46:14.976Z,97907.78
2022-12-17T15:48:49.609Z,97901.53
2022-12-17T15:51:20.076Z,97904.97
2022-12-17T15:53:48.281Z,97902.34
2022-12-17T15:56:20.522Z,97905.16
2022-12-17T15:58:48.756Z,97906.91
2022-12-17T16:01:17.347Z,97913.78
2022-12-17T16:03:46.012Z,97908.50
2022-12-17T16:06:13.981Z,97903.81
2022-12-17T16:08:43.379Z,97904.13
2022-12-17T16:11:13.918Z,97897.72
2022-12-17T16:13:42.079Z,97898.72
2022-12-17T16:16:11.045Z,97907.25
2022-12-17T16:18:39.428Z,97900.50
2022-12-17T16:21:09.011Z,97907.88
2022-12-17T16:23:37.239Z,97905.47
2022-12-17T16:26:08.924Z,97903.28
2022-12-17T16:28:37.386Z,97906.41
2022-12-17T16:31:08.285Z,97906.97
2022-12-17T16:33:38.616Z,97897.13
2022-12-17T16:36:08.562Z,97906.91
2022-12-17T16:38:42.476Z,97908.44
2022-12-17T16:41:20.366Z,97908.63
2022-12-17T16:43:49.775Z,97912.63
2022-12-17T16:46:27.541Z,97906.78
2022-12-17T16:48:58.335Z,97909.72
2022-12-17T16:51:29.723Z,97912.97
2022-12-17T16:53:59.303Z,97913.66
2022-12-17T16:56:38.016Z,97907.44
2022-12-17T16:59:10.026Z,97914.47
2022-12-17T17:01:42.436Z,97918.09
2022-12-17T17:04:11.687Z,97918.31
2022-12-17T17:06:44.159Z,97924.69
2022-12-17T17:09:13.337Z,97925.69
2022-12-17T17:11:46.882Z,97938.53
2022-12-17T17:14:20.269Z,97943.22
2022-12-17T17:16:49.291Z,97940.19
2022-12-17T17:19:17.641Z,97946.97
2022-12-17T17:21:49.796Z,97940.47
2022-12-17T17:24:21.683Z,97943.72
2022-12-17T17:26:53.007Z,97943.69
2022-12-17T17:29:21.314Z,97950.78
2022-12-17T17:34:38.285Z,97937.66
2022-12-17T17:37:19.321Z,97942.75
2022-12-17T17:39:47.249Z,97949.88
2022-12-17T17:42:18.230Z,97942.31
2022-12-17T17:44:47.561Z,97942.44
2022-12-17T17:47:17.501Z,97938.00
2022-12-17T17:49:45.499Z,97945.50
2022-12-17T17:52:13.727Z,97953.22
2022-12-17T17:54:41.499Z,97950.34
2022-12-17T17:57:10.032Z,97957.44
2022-12-17T17:59:41.856Z,97956.38
2022-12-17T18:02:13.424Z,97960.44
2022-12-17T18:04:41.523Z,97957.34
2022-12-17T18:07:24.790Z,97960.72
2022-12-17T18:09:56.660Z,97962.84
2022-12-17T18:12:24.693Z,97970.44
2022-12-17T18:17:45.921Z,97976.09
2022-12-17T18:20:16.548Z,97976.09
2022-12-17T18:22:44.874Z,97979.06
2022-12-17T18:25:12.921Z,97977.78
2022-12-17T18:27:40.937Z,97972.22
2022-12-17T18:30:11.605Z,97977.53
2022-12-17T18:32:41.525Z,97976.34
2022-12-17T18:35:11.257Z,97984.66
2022-12-17T18:37:40.408Z,97978.47
2022-12-17T18:40:11.465Z,97989.63
2022-12-17T18:42:39.326Z,97987.19
2022-12-17T18:45:09.189Z,97985.59
2022-12-17T18:48:42.118Z,97991.06
2022-12-17T18:56:37.898Z,97996.41
2022-12-17T18:59:14.503Z,97997.28
2022-12-17T19:01:52.275Z,98012.56
2022-12-17T19:04:28.179Z,98009.41
2022-12-17T19:06:56.054Z,98012.88
2022-12-17T19:09:41.250Z,98017.56
2022-12-17T19:12:09.925Z,98017.31
2022-12-17T19:14:39.698Z,98020.06
2022-12-17T19:17:10.326Z,98021.50
2022-12-17T19:19:47.939Z,98023.44
2022-12-17T19:23:22.078Z,98036.03
2022-12-17T19:25:09.497Z,98036.75
2022-12-17T19:27:46.131Z,98038.94
2022-12-17T19:30:14.742Z,98046.34
2022-12-17T19:32:55.351Z,98048.72
2022-12-17T19:38:53.412Z,98038.16
2022-12-17T19:44:49.672Z,98049.34
2022-12-17T19:48:29.179Z,98057.53
2022-12-17T19:50:51.065Z,98063.75
2022-12-17T19:57:03.764Z,98063.88
2022-12-17T19:59:42.261Z,98066.28
2022-12-17T20:02:34.925Z,98068.44
2022-12-17T20:05:11.969Z,98077.16
2022-12-17T20:08:22.224Z,98075.94
2022-12-17T20:10:50.286Z,98088.16
2022-12-17T20:13:54.229Z,98090.19
2022-12-17T20:17:12.769Z,98098.41
2022-12-17T20:19:43.229Z,98096.03
2022-12-17T20:22:41.829Z,98096.78
2022-12-17T20:25:47.679Z,98088.44
2022-12-17T20:28:39.415Z,98082.81
2022-12-17T20:31:11.078Z,98084.72
2022-12-17T20:46:49.894Z,98102.44
2022-12-17T20:49:17.769Z,98092.69
2022-12-17T20:52:04.641Z,98084.75
2022-12-17T20:54:36.380Z,98097.75
2022-12-17T20:57:11.939Z,98097.19
2022-12-17T21:02:42.200Z,98113.47
2022-12-17T21:05:32.395Z,98119.34
2022-12-17T21:08:07.857Z,98122.34
2022-12-17T21:10:40.318Z,98122.47
2022-12-17T21:14:14.455Z,98123.06
2022-12-17T21:16:17.650Z,98126.66
2022-12-17T21:19:10.856Z,98129.09
2022-12-17T21:21:56.230Z,98114.97
2022-12-17T21:24:30.422Z,98114.84
2022-12-17T21:27:02.155Z,98118.44
2022-12-17T21:29:34.300Z,98118.38
2022-12-17T21:32:04.508Z,98119.34
2022-12-17T21:35:20.589Z,98125.47
2022-12-17T21:37:56.968Z,98139.28
2022-12-17T21:40:27.613Z,98142.34
2022-12-17T21:43:09.739Z,98145.00
2022-12-17T21:45:54.094Z,98140.97
2022-12-17T21:48:27.184Z,98133.72
2022-12-17T21:51:12.281Z,98136.47
2022-12-17T21:53:55.268Z,98129.72
2022-12-17T21:56:37.717Z,98131.13
2022-12-17T21:59:26.777Z,98125.41
2022-12-17T22:02:25.668Z,98129.66
2022-12-17T22:08:15.983Z,98120.06
2022-12-17T22:10:51.799Z,98118.59
2022-12-17T22:13:35.503Z,98119.59
2022-12-17T22:16:18.889Z,98120.22
2022-12-17T22:22:03.092Z,98130.25
2022-12-17T22:25:24.126Z,98131.56
2022-12-17T22:27:40.213Z,98122.78
2022-12-17T22:35:29.383Z,98120.66
2022-12-17T22:39:14.351Z,98128.81
2022-12-17T22:44:44.170Z,98139.53
2022-12-17T22:45:31.663Z,98137.63
2022-12-17T22:47:59.804Z,98141.22
2022-12-17T22:50:37.280Z,98146.13
2022-12-17T22:53:10.947Z,98149.66
2022-12-17T22:55:49.981Z,98150.66
2022-12-17T22:58:25.646Z,98160.41
2022-12-17T23:00:55.302Z,98169.41
2022-12-17T23:03:39.715Z,98157.75
2022-12-17T23:06:13.456Z,98152.13
2022-12-17T23:08:42.048Z,98161.06
2022-12-17T23:11:16.602Z,98157.56
2022-12-17T23:13:46.844Z,98153.44
2022-12-17T23:16:26.175Z,98144.56
2022-12-17T23:19:01.986Z,98140.34
2022-12-17T23:21:31.991Z,98142.53
2022-12-17T23:24:02.096Z,98148.03
2022-12-17T23:26:35.368Z,98157.59
2022-12-17T23:29:13.582Z,98159.44
2022-12-17T23:31:46.867Z,98150.63
2022-12-17T23:34:16.365Z,98151.00
2022-12-17T23:36:45.605Z,98153.19
2022-12-17T23:39:13.683Z,98159.94
2022-12-17T23:44:43.099Z,98165.94
2022-12-17T23:47:13.594Z,98171.72
2022-12-17T23:50:19.551Z,98172.59
2022-12-17T23:52:48.950Z,98172.91
2022-12-17T23:55:16.966Z,98176.41
2022-12-17T23:57:47.423Z,98182.03
